sensor_id;sensor_type;location;lat;lon;timestamp;P1;durP1;ratioP1;P2;durP2;ratioP2
23628;SDS011;11991;57.150;-2.134;2023-01-25T00:00:28;2.15;;;1.85;;
23628;SDS011;11991;57.150;-2.134;2023-01-25T00:02:56;1.83;;;1.65;;
23628;SDS011;11991;57.150;-2.134;2023-01-25T00:05:24;2.45;;;2.17;;
23628;SDS011;11991;57.150;-2.134;2023-01-25T00:07:51;1.75;;;1.60;;
23628;SDS011;11991;57.150;-2.134;2023-01-25T00:10:21;2.97;;;2.20;;
23628;SDS011;11991;57.150;-2.134;2023-01-25T00:12:49;2.10;;;1.58;;
23628;SDS011;11991;57.150;-2.134;2023-01-25T00:15:16;1.58;;;1.40;;
23628;SDS011;11991;57.150;-2.134;2023-01-25T00:17:45;1.95;;;1.73;;
23628;SDS011;11991;57.150;-2.134;2023-01-25T00:20:12;1.88;;;1.50;;
23628;SDS011;11991;57.150;-2.134;2023-01-25T00:22:39;1.55;;;1.33;;
23628;SDS011;11991;57.150;-2.134;2023-01-25T00:25:07;1.70;;;1.38;;
23628;SDS011;11991;57.150;-2.134;2023-01-25T00:27:35;1.10;;;1.00;;
23628;SDS011;11991;57.150;-2.134;2023-01-25T00:30:02;1.02;;;0.90;;
23628;SDS011;11991;57.150;-2.134;2023-01-25T00:33:05;1.13;;;1.02;;
23628;SDS011;11991;57.150;-2.134;2023-01-25T00:35:55;1.08;;;0.95;;
23628;SDS011;11991;57.150;-2.134;2023-01-25T00:38:26;0.80;;;0.80;;
23628;SDS011;11991;57.150;-2.134;2023-01-25T00:40:56;0.70;;;0.70;;
23628;SDS011;11991;57.150;-2.134;2023-01-25T00:43:24;0.70;;;0.70;;
23628;SDS011;11991;57.150;-2.134;2023-01-25T00:45:51;0.60;;;0.60;;
23628;SDS011;11991;57.150;-2.134;2023-01-25T00:48:26;0.60;;;0.60;;
23628;SDS011;11991;57.150;-2.134;2023-01-25T00:50:54;0.70;;;0.70;;
23628;SDS011;11991;57.150;-2.134;2023-01-25T00:53:25;0.75;;;0.75;;
23628;SDS011;11991;57.150;-2.134;2023-01-25T00:55:52;0.70;;;0.70;;
23628;SDS011;11991;57.150;-2.134;2023-01-25T00:58:20;1.92;;;0.80;;
23628;SDS011;11991;57.150;-2.134;2023-01-25T01:00:47;0.70;;;0.65;;
23628;SDS011;11991;57.150;-2.134;2023-01-25T01:03:15;0.82;;;0.82;;
23628;SDS011;11991;57.150;-2.134;2023-01-25T01:05:44;0.80;;;0.80;;
23628;SDS011;11991;57.150;-2.134;2023-01-25T01:08:12;0.70;;;0.70;;
23628;SDS011;11991;57.150;-2.134;2023-01-25T01:10:40;0.80;;;0.80;;
23628;SDS011;11991;57.150;-2.134;2023-01-25T01:13:08;0.70;;;0.70;;
23628;SDS011;11991;57.150;-2.134;2023-01-25T01:15:35;1.77;;;1.40;;
23628;SDS011;11991;57.150;-2.134;2023-01-25T01:18:03;1.38;;;1.25;;
23628;SDS011;11991;57.150;-2.134;2023-01-25T01:20:30;1.00;;;0.90;;
23628;SDS011;11991;57.150;-2.134;2023-01-25T01:22:58;1.15;;;1.05;;
23628;SDS011;11991;57.150;-2.134;2023-01-25T01:25:25;1.88;;;1.45;;
23628;SDS011;11991;57.150;-2.134;2023-01-25T01:27:52;1.10;;;1.00;;
23628;SDS011;11991;57.150;-2.134;2023-01-25T01:30:19;1.23;;;1.00;;
23628;SDS011;11991;57.150;-2.134;2023-01-25T01:32:47;1.30;;;0.90;;
23628;SDS011;11991;57.150;-2.134;2023-01-25T01:35:17;1.23;;;1.13;;
23628;SDS011;11991;57.150;-2.134;2023-01-25T01:37:44;0.95;;;0.85;;
23628;SDS011;11991;57.150;-2.134;2023-01-25T01:40:15;1.10;;;1.00;;
23628;SDS011;11991;57.150;-2.134;2023-01-25T01:51:15;0.60;;;0.60;;
23628;SDS011;11991;57.150;-2.134;2023-01-25T01:53:48;0.90;;;0.90;;
23628;SDS011;11991;57.150;-2.134;2023-01-25T01:56:29;1.52;;;1.17;;
23628;SDS011;11991;57.150;-2.134;2023-01-25T01:59:05;2.05;;;1.77;;
23628;SDS011;11991;57.150;-2.134;2023-01-25T02:01:34;1.50;;;1.27;;
23628;SDS011;11991;57.150;-2.134;2023-01-25T02:04:02;1.60;;;1.42;;
23628;SDS011;11991;57.150;-2.134;2023-01-25T02:06:35;2.42;;;1.50;;
23628;SDS011;11991;57.150;-2.134;2023-01-25T02:09:15;2.15;;;1.70;;
23628;SDS011;11991;57.150;-2.134;2023-01-25T02:11:45;1.42;;;1.33;;
23628;SDS011;11991;57.150;-2.134;2023-01-25T02:14:13;1.73;;;1.52;;
23628;SDS011;11991;57.150;-2.134;2023-01-25T02:16:42;2.40;;;1.98;;
23628;SDS011;11991;57.150;-2.134;2023-01-25T02:19:16;2.35;;;1.88;;
23628;SDS011;11991;57.150;-2.134;2023-01-25T02:22:05;1.50;;;1.40;;
23628;SDS011;11991;57.150;-2.134;2023-01-25T02:24:36;2.35;;;1.70;;
23628;SDS011;11991;57.150;-2.134;2023-01-25T02:27:08;1.25;;;1.15;;
23628;SDS011;11991;57.150;-2.134;2023-01-25T02:29:36;1.40;;;1.30;;
23628;SDS011;11991;57.150;-2.134;2023-01-25T02:32:04;1.70;;;1.40;;
23628;SDS011;11991;57.150;-2.134;2023-01-25T02:34:32;1.10;;;1.00;;
23628;SDS011;11991;57.150;-2.134;2023-01-25T02:37:02;0.90;;;0.80;;
23628;SDS011;11991;57.150;-2.134;2023-01-25T02:39:29;1.17;;;1.00;;
23628;SDS011;11991;57.150;-2.134;2023-01-25T02:41:56;0.73;;;0.73;;
23628;SDS011;11991;57.150;-2.134;2023-01-25T02:44:29;0.80;;;0.80;;
23628;SDS011;11991;57.150;-2.134;2023-01-25T02:47:02;0.70;;;0.70;;
23628;SDS011;11991;57.150;-2.134;2023-01-25T02:49:29;1.10;;;0.90;;
23628;SDS011;11991;57.150;-2.134;2023-01-25T02:52:00;1.33;;;1.10;;
23628;SDS011;11991;57.150;-2.134;2023-01-25T02:54:27;1.10;;;0.80;;
23628;SDS011;11991;57.150;-2.134;2023-01-25T02:56:55;0.50;;;0.50;;
23628;SDS011;11991;57.150;-2.134;2023-01-25T02:59:25;0.70;;;0.70;;
23628;SDS011;11991;57.150;-2.134;2023-01-25T03:01:56;0.60;;;0.50;;
23628;SDS011;11991;57.150;-2.134;2023-01-25T03:04:24;0.93;;;0.65;;
23628;SDS011;11991;57.150;-2.134;2023-01-25T03:06:51;0.70;;;0.70;;
23628;SDS011;11991;57.150;-2.134;2023-01-25T03:09:18;0.50;;;0.50;;
23628;SDS011;11991;57.150;-2.134;2023-01-25T03:11:48;0.50;;;0.50;;
23628;SDS011;11991;57.150;-2.134;2023-01-25T03:14:18;0.50;;;0.50;;
23628;SDS011;11991;57.150;-2.134;2023-01-25T03:16:45;0.50;;;0.50;;
23628;SDS011;11991;57.150;-2.134;2023-01-25T03:19:14;0.60;;;0.60;;
23628;SDS011;11991;57.150;-2.134;2023-01-25T03:21:42;0.50;;;0.50;;
23628;SDS011;11991;57.150;-2.134;2023-01-25T03:24:09;0.40;;;0.40;;
23628;SDS011;11991;57.150;-2.134;2023-01-25T03:26:42;0.50;;;0.50;;
23628;SDS011;11991;57.150;-2.134;2023-01-25T03:29:41;0.98;;;0.70;;
23628;SDS011;11991;57.150;-2.134;2023-01-25T03:32:14;0.50;;;0.50;;
23628;SDS011;11991;57.150;-2.134;2023-01-25T03:34:41;0.50;;;0.50;;
23628;SDS011;11991;57.150;-2.134;2023-01-25T03:37:09;0.43;;;0.43;;
23628;SDS011;11991;57.150;-2.134;2023-01-25T03:39:38;0.70;;;0.70;;
23628;SDS011;11991;57.150;-2.134;2023-01-25T03:42:06;0.63;;;0.63;;
23628;SDS011;11991;57.150;-2.134;2023-01-25T03:44:34;0.60;;;0.60;;
23628;SDS011;11991;57.150;-2.134;2023-01-25T03:47:02;0.70;;;0.70;;
23628;SDS011;11991;57.150;-2.134;2023-01-25T03:49:31;0.40;;;0.40;;
23628;SDS011;11991;57.150;-2.134;2023-01-25T03:51:59;0.50;;;0.50;;
23628;SDS011;11991;57.150;-2.134;2023-01-25T03:54:36;0.73;;;0.50;;
23628;SDS011;11991;57.150;-2.134;2023-01-25T03:57:06;0.50;;;0.50;;
23628;SDS011;11991;57.150;-2.134;2023-01-25T03:59:41;0.60;;;0.50;;
23628;SDS011;11991;57.150;-2.134;2023-01-25T04:02:08;0.38;;;0.38;;
23628;SDS011;11991;57.150;-2.134;2023-01-25T04:04:38;0.40;;;0.40;;
23628;SDS011;11991;57.150;-2.134;2023-01-25T04:07:07;0.40;;;0.40;;
23628;SDS011;11991;57.150;-2.134;2023-01-25T04:09:36;0.40;;;0.40;;
23628;SDS011;11991;57.150;-2.134;2023-01-25T04:12:05;0.40;;;0.40;;
23628;SDS011;11991;57.150;-2.134;2023-01-25T04:14:33;0.20;;;0.20;;
23628;SDS011;11991;57.150;-2.134;2023-01-25T04:17:17;0.30;;;0.30;;
23628;SDS011;11991;57.150;-2.134;2023-01-25T04:19:50;0.40;;;0.40;;
23628;SDS011;11991;57.150;-2.134;2023-01-25T04:22:22;0.30;;;0.30;;
23628;SDS011;11991;57.150;-2.134;2023-01-25T04:24:52;0.30;;;0.30;;
23628;SDS011;11991;57.150;-2.134;2023-01-25T04:27:19;0.30;;;0.30;;
23628;SDS011;11991;57.150;-2.134;2023-01-25T04:30:12;0.20;;;0.20;;
23628;SDS011;11991;57.150;-2.134;2023-01-25T04:32:42;0.40;;;0.40;;
23628;SDS011;11991;57.150;-2.134;2023-01-25T04:35:21;1.05;;;0.70;;
23628;SDS011;11991;57.150;-2.134;2023-01-25T04:37:55;0.30;;;0.30;;
23628;SDS011;11991;57.150;-2.134;2023-01-25T04:40:27;0.40;;;0.40;;
23628;SDS011;11991;57.150;-2.134;2023-01-25T04:42:54;0.32;;;0.32;;
23628;SDS011;11991;57.150;-2.134;2023-01-25T04:45:23;0.32;;;0.32;;
23628;SDS011;11991;57.150;-2.134;2023-01-25T04:47:56;0.40;;;0.40;;
23628;SDS011;11991;57.150;-2.134;2023-01-25T04:50:31;0.30;;;0.30;;
23628;SDS011;11991;57.150;-2.134;2023-01-25T04:53:00;0.40;;;0.40;;
23628;SDS011;11991;57.150;-2.134;2023-01-25T04:55:29;0.40;;;0.40;;
23628;SDS011;11991;57.150;-2.134;2023-01-25T04:57:59;0.30;;;0.30;;
23628;SDS011;11991;57.150;-2.134;2023-01-25T05:00:27;0.43;;;0.43;;
23628;SDS011;11991;57.150;-2.134;2023-01-25T05:02:58;0.30;;;0.30;;
23628;SDS011;11991;57.150;-2.134;2023-01-25T05:05:25;0.50;;;0.50;;
23628;SDS011;11991;57.150;-2.134;2023-01-25T05:07:54;0.35;;;0.35;;
23628;SDS011;11991;57.150;-2.134;2023-01-25T05:10:21;0.40;;;0.40;;
23628;SDS011;11991;57.150;-2.134;2023-01-25T05:13:08;0.82;;;0.30;;
23628;SDS011;11991;57.150;-2.134;2023-01-25T05:15:37;0.30;;;0.30;;
23628;SDS011;11991;57.150;-2.134;2023-01-25T05:18:04;0.30;;;0.30;;
23628;SDS011;11991;57.150;-2.134;2023-01-25T05:20:33;0.40;;;0.40;;
23628;SDS011;11991;57.150;-2.134;2023-01-25T05:23:01;0.40;;;0.40;;
23628;SDS011;11991;57.150;-2.134;2023-01-25T05:25:29;0.40;;;0.40;;
23628;SDS011;11991;57.150;-2.134;2023-01-25T05:28:20;0.45;;;0.45;;
23628;SDS011;11991;57.150;-2.134;2023-01-25T05:31:10;0.60;;;0.60;;
23628;SDS011;11991;57.150;-2.134;2023-01-25T05:33:38;0.40;;;0.40;;
23628;SDS011;11991;57.150;-2.134;2023-01-25T05:36:05;0.38;;;0.38;;
23628;SDS011;11991;57.150;-2.134;2023-01-25T05:38:35;0.40;;;0.40;;
23628;SDS011;11991;57.150;-2.134;2023-01-25T05:41:03;0.32;;;0.32;;
23628;SDS011;11991;57.150;-2.134;2023-01-25T05:43:30;0.40;;;0.40;;
23628;SDS011;11991;57.150;-2.134;2023-01-25T05:45:59;0.30;;;0.30;;
23628;SDS011;11991;57.150;-2.134;2023-01-25T05:48:28;0.45;;;0.45;;
23628;SDS011;11991;57.150;-2.134;2023-01-25T05:50:56;0.40;;;0.40;;
23628;SDS011;11991;57.150;-2.134;2023-01-25T05:53:25;0.60;;;0.60;;
23628;SDS011;11991;57.150;-2.134;2023-01-25T05:55:52;0.50;;;0.50;;
23628;SDS011;11991;57.150;-2.134;2023-01-25T05:58:21;0.60;;;0.60;;
23628;SDS011;11991;57.150;-2.134;2023-01-25T06:00:48;1.23;;;0.80;;
23628;SDS011;11991;57.150;-2.134;2023-01-25T06:03:29;0.80;;;0.80;;
23628;SDS011;11991;57.150;-2.134;2023-01-25T06:05:59;0.80;;;0.70;;
23628;SDS011;11991;57.150;-2.134;2023-01-25T06:08:30;0.50;;;0.50;;
23628;SDS011;11991;57.150;-2.134;2023-01-25T06:10:58;0.75;;;0.73;;
23628;SDS011;11991;57.150;-2.134;2023-01-25T06:13:25;0.70;;;0.70;;
23628;SDS011;11991;57.150;-2.134;2023-01-25T06:15:54;0.65;;;0.65;;
23628;SDS011;11991;57.150;-2.134;2023-01-25T06:18:41;0.55;;;0.55;;
23628;SDS011;11991;57.150;-2.134;2023-01-25T06:21:27;0.70;;;0.60;;
23628;SDS011;11991;57.150;-2.134;2023-01-25T06:23:55;0.90;;;0.90;;
23628;SDS011;11991;57.150;-2.134;2023-01-25T06:26:22;0.70;;;0.70;;
23628;SDS011;11991;57.150;-2.134;2023-01-25T06:28:49;1.52;;;0.90;;
23628;SDS011;11991;57.150;-2.134;2023-01-25T06:31:18;0.55;;;0.55;;
23628;SDS011;11991;57.150;-2.134;2023-01-25T06:33:47;1.40;;;1.00;;
23628;SDS011;11991;57.150;-2.134;2023-01-25T06:36:18;0.65;;;0.65;;
23628;SDS011;11991;57.150;-2.134;2023-01-25T06:38:46;1.10;;;0.88;;
23628;SDS011;11991;57.150;-2.134;2023-01-25T06:41:16;0.80;;;0.80;;
23628;SDS011;11991;57.150;-2.134;2023-01-25T06:43:44;1.92;;;0.75;;
23628;SDS011;11991;57.150;-2.134;2023-01-25T06:46:13;1.20;;;0.80;;
23628;SDS011;11991;57.150;-2.134;2023-01-25T06:48:40;0.90;;;0.60;;
23628;SDS011;11991;57.150;-2.134;2023-01-25T06:51:11;1.05;;;0.95;;
23628;SDS011;11991;57.150;-2.134;2023-01-25T06:53:42;1.02;;;0.93;;
23628;SDS011;11991;57.150;-2.134;2023-01-25T06:56:15;0.85;;;0.70;;
23628;SDS011;11991;57.150;-2.134;2023-01-25T06:58:47;1.02;;;0.70;;
23628;SDS011;11991;57.150;-2.134;2023-01-25T07:01:17;1.13;;;0.80;;
23628;SDS011;11991;57.150;-2.134;2023-01-25T07:03:49;1.08;;;1.00;;
23628;SDS011;11991;57.150;-2.134;2023-01-25T07:06:17;0.77;;;0.77;;
23628;SDS011;11991;57.150;-2.134;2023-01-25T07:08:45;1.45;;;0.75;;
23628;SDS011;11991;57.150;-2.134;2023-01-25T07:11:13;0.82;;;0.80;;
23628;SDS011;11991;57.150;-2.134;2023-01-25T07:13:42;0.60;;;0.60;;
23628;SDS011;11991;57.150;-2.134;2023-01-25T07:16:15;0.85;;;0.85;;
23628;SDS011;11991;57.150;-2.134;2023-01-25T07:18:45;0.80;;;0.80;;
23628;SDS011;11991;57.150;-2.134;2023-01-25T07:23:41;0.60;;;0.60;;
23628;SDS011;11991;57.150;-2.134;2023-01-25T07:26:20;0.52;;;0.52;;
23628;SDS011;11991;57.150;-2.134;2023-01-25T07:28:49;0.73;;;0.73;;
23628;SDS011;11991;57.150;-2.134;2023-01-25T07:31:18;0.68;;;0.68;;
23628;SDS011;11991;57.150;-2.134;2023-01-25T07:33:47;0.63;;;0.63;;
23628;SDS011;11991;57.150;-2.134;2023-01-25T07:36:19;0.50;;;0.50;;
23628;SDS011;11991;57.150;-2.134;2023-01-25T07:38:47;0.70;;;0.70;;
23628;SDS011;11991;57.150;-2.134;2023-01-25T07:41:14;0.57;;;0.57;;
23628;SDS011;11991;57.150;-2.134;2023-01-25T07:43:42;0.40;;;0.40;;
23628;SDS011;11991;57.150;-2.134;2023-01-25T07:46:11;0.60;;;0.60;;
23628;SDS011;11991;57.150;-2.134;2023-01-25T07:48:40;0.50;;;0.50;;
23628;SDS011;11991;57.150;-2.134;2023-01-25T07:51:12;0.55;;;0.55;;
23628;SDS011;11991;57.150;-2.134;2023-01-25T07:53:59;0.70;;;0.50;;
23628;SDS011;11991;57.150;-2.134;2023-01-25T07:56:30;0.63;;;0.63;;
23628;SDS011;11991;57.150;-2.134;2023-01-25T07:59:00;0.60;;;0.60;;
23628;SDS011;11991;57.150;-2.134;2023-01-25T08:01:30;0.50;;;0.50;;
23628;SDS011;11991;57.150;-2.134;2023-01-25T08:04:01;0.60;;;0.60;;
23628;SDS011;11991;57.150;-2.134;2023-01-25T08:06:30;0.60;;;0.60;;
23628;SDS011;11991;57.150;-2.134;2023-01-25T08:09:10;0.60;;;0.60;;
23628;SDS011;11991;57.150;-2.134;2023-01-25T08:11:39;0.70;;;0.70;;
23628;SDS011;11991;57.150;-2.134;2023-01-25T08:14:07;0.50;;;0.50;;
23628;SDS011;11991;57.150;-2.134;2023-01-25T08:16:35;0.70;;;0.70;;
23628;SDS011;11991;57.150;-2.134;2023-01-25T08:19:02;0.50;;;0.50;;
23628;SDS011;11991;57.150;-2.134;2023-01-25T08:21:32;0.30;;;0.30;;
23628;SDS011;11991;57.150;-2.134;2023-01-25T08:24:02;0.38;;;0.38;;
23628;SDS011;11991;57.150;-2.134;2023-01-25T08:26:31;0.50;;;0.40;;
23628;SDS011;11991;57.150;-2.134;2023-01-25T08:28:59;0.20;;;0.20;;
23628;SDS011;11991;57.150;-2.134;2023-01-25T08:31:28;0.30;;;0.30;;
23628;SDS011;11991;57.150;-2.134;2023-01-25T08:33:57;0.30;;;0.30;;
23628;SDS011;11991;57.150;-2.134;2023-01-25T08:36:25;0.32;;;0.32;;
23628;SDS011;11991;57.150;-2.134;2023-01-25T08:38:59;0.20;;;0.20;;
23628;SDS011;11991;57.150;-2.134;2023-01-25T08:41:29;0.30;;;0.30;;
23628;SDS011;11991;57.150;-2.134;2023-01-25T08:43:57;0.77;;;0.30;;
23628;SDS011;11991;57.150;-2.134;2023-01-25T08:46:26;0.20;;;0.20;;
23628;SDS011;11991;57.150;-2.134;2023-01-25T08:48:58;0.30;;;0.30;;
23628;SDS011;11991;57.150;-2.134;2023-01-25T08:51:26;0.63;;;0.40;;
23628;SDS011;11991;57.150;-2.134;2023-01-25T08:53:54;0.40;;;0.40;;
23628;SDS011;11991;57.150;-2.134;2023-01-25T08:56:21;1.10;;;0.30;;
23628;SDS011;11991;57.150;-2.134;2023-01-25T08:58:49;1.48;;;0.50;;
23628;SDS011;11991;57.150;-2.134;2023-01-25T09:01:17;0.38;;;0.38;;
23628;SDS011;11991;57.150;-2.134;2023-01-25T09:03:46;0.70;;;0.43;;
23628;SDS011;11991;57.150;-2.134;2023-01-25T09:06:17;1.02;;;0.32;;
23628;SDS011;11991;57.150;-2.134;2023-01-25T09:08:47;0.68;;;0.50;;
23628;SDS011;11991;57.150;-2.134;2023-01-25T09:11:15;0.98;;;0.50;;
23628;SDS011;11991;57.150;-2.134;2023-01-25T09:13:44;0.82;;;0.40;;
23628;SDS011;11991;57.150;-2.134;2023-01-25T09:16:18;1.08;;;0.68;;
23628;SDS011;11991;57.150;-2.134;2023-01-25T09:19:01;0.40;;;0.40;;
23628;SDS011;11991;57.150;-2.134;2023-01-25T09:21:30;0.50;;;0.40;;
23628;SDS011;11991;57.150;-2.134;2023-01-25T09:23:59;2.40;;;0.57;;
23628;SDS011;11991;57.150;-2.134;2023-01-25T09:26:33;1.02;;;0.55;;
23628;SDS011;11991;57.150;-2.134;2023-01-25T09:29:03;2.38;;;0.57;;
23628;SDS011;11991;57.150;-2.134;2023-01-25T09:31:33;1.90;;;0.55;;
23628;SDS011;11991;57.150;-2.134;2023-01-25T09:34:39;1.67;;;0.30;;
23628;SDS011;11991;57.150;-2.134;2023-01-25T09:37:06;1.42;;;0.70;;
23628;SDS011;11991;57.150;-2.134;2023-01-25T09:39:34;1.50;;;0.63;;
23628;SDS011;11991;57.150;-2.134;2023-01-25T09:45:04;0.50;;;0.40;;
23628;SDS011;11991;57.150;-2.134;2023-01-25T09:47:57;1.17;;;0.70;;
23628;SDS011;11991;57.150;-2.134;2023-01-25T09:54:59;1.35;;;0.40;;
23628;SDS011;11991;57.150;-2.134;2023-01-25T09:57:37;1.70;;;0.50;;
23628;SDS011;11991;57.150;-2.134;2023-01-25T10:00:18;1.42;;;0.80;;
23628;SDS011;11991;57.150;-2.134;2023-01-25T10:05:21;0.90;;;0.43;;
23628;SDS011;11991;57.150;-2.134;2023-01-25T10:10:37;0.73;;;0.60;;
23628;SDS011;11991;57.150;-2.134;2023-01-25T10:13:08;3.97;;;1.38;;
23628;SDS011;11991;57.150;-2.134;2023-01-25T10:19:37;2.97;;;0.80;;
23628;SDS011;11991;57.150;-2.134;2023-01-25T10:26:28;3.47;;;1.02;;
23628;SDS011;11991;57.150;-2.134;2023-01-25T10:29:11;1.77;;;0.60;;
23628;SDS011;11991;57.150;-2.134;2023-01-25T10:32:29;1.83;;;1.00;;
23628;SDS011;11991;57.150;-2.134;2023-01-25T10:35:20;3.35;;;0.70;;
23628;SDS011;11991;57.150;-2.134;2023-01-25T10:43:50;2.35;;;0.93;;
23628;SDS011;11991;57.150;-2.134;2023-01-25T10:46:38;1.48;;;0.60;;
23628;SDS011;11991;57.150;-2.134;2023-01-25T10:49:17;1.30;;;0.70;;
23628;SDS011;11991;57.150;-2.134;2023-01-25T10:51:50;2.30;;;0.70;;
23628;SDS011;11991;57.150;-2.134;2023-01-25T10:54:19;1.17;;;0.70;;
23628;SDS011;11991;57.150;-2.134;2023-01-25T10:56:48;2.08;;;0.55;;
23628;SDS011;11991;57.150;-2.134;2023-01-25T10:59:19;3.03;;;1.00;;
23628;SDS011;11991;57.150;-2.134;2023-01-25T11:01:51;2.58;;;0.70;;
23628;SDS011;11991;57.150;-2.134;2023-01-25T11:06:57;1.48;;;0.60;;
23628;SDS011;11991;57.150;-2.134;2023-01-25T11:09:34;1.90;;;0.50;;
23628;SDS011;11991;57.150;-2.134;2023-01-25T11:14:47;2.30;;;0.80;;
23628;SDS011;11991;57.150;-2.134;2023-01-25T11:17:29;1.70;;;0.57;;
23628;SDS011;11991;57.150;-2.134;2023-01-25T11:20:04;2.92;;;1.00;;
23628;SDS011;11991;57.150;-2.134;2023-01-25T11:22:34;0.80;;;0.45;;
23628;SDS011;11991;57.150;-2.134;2023-01-25T11:28:10;2.08;;;0.75;;
23628;SDS011;11991;57.150;-2.134;2023-01-25T11:30:44;1.17;;;0.60;;
23628;SDS011;11991;57.150;-2.134;2023-01-25T11:33:24;2.75;;;0.60;;
23628;SDS011;11991;57.150;-2.134;2023-01-25T11:36:16;2.22;;;0.70;;
23628;SDS011;11991;57.150;-2.134;2023-01-25T11:39:16;0.82;;;0.32;;
23628;SDS011;11991;57.150;-2.134;2023-01-25T11:41:52;0.43;;;0.40;;
23628;SDS011;11991;57.150;-2.134;2023-01-25T11:47:42;1.25;;;1.02;;
23628;SDS011;11991;57.150;-2.134;2023-01-25T11:59:08;2.25;;;0.73;;
23628;SDS011;11991;57.150;-2.134;2023-01-25T12:07:54;2.53;;;0.68;;
23628;SDS011;11991;57.150;-2.134;2023-01-25T12:27:35;3.38;;;0.88;;
23628;SDS011;11991;57.150;-2.134;2023-01-25T12:33:06;2.40;;;0.80;;
23628;SDS011;11991;57.150;-2.134;2023-01-25T12:38:33;3.63;;;1.00;;
23628;SDS011;11991;57.150;-2.134;2023-01-25T12:44:17;2.38;;;0.93;;
23628;SDS011;11991;57.150;-2.134;2023-01-25T12:50:02;2.60;;;1.10;;
23628;SDS011;11991;57.150;-2.134;2023-01-25T12:52:48;2.13;;;0.98;;
23628;SDS011;11991;57.150;-2.134;2023-01-25T12:55:20;2.53;;;1.08;;
23628;SDS011;11991;57.150;-2.134;2023-01-25T12:57:54;3.58;;;0.85;;
23628;SDS011;11991;57.150;-2.134;2023-01-25T13:11:37;2.20;;;0.88;;
23628;SDS011;11991;57.150;-2.134;2023-01-25T13:16:50;4.10;;;0.70;;
23628;SDS011;11991;57.150;-2.134;2023-01-25T13:22:04;6.93;;;1.42;;
23628;SDS011;11991;57.150;-2.134;2023-01-25T13:24:33;2.30;;;1.00;;
23628;SDS011;11991;57.150;-2.134;2023-01-25T13:27:27;4.68;;;1.08;;
23628;SDS011;11991;57.150;-2.134;2023-01-25T13:30:23;4.00;;;1.02;;
23628;SDS011;11991;57.150;-2.134;2023-01-25T13:32:53;1.70;;;1.00;;
23628;SDS011;11991;57.150;-2.134;2023-01-25T13:35:26;6.53;;;1.48;;
23628;SDS011;11991;57.150;-2.134;2023-01-25T13:38:00;3.22;;;1.15;;
23628;SDS011;11991;57.150;-2.134;2023-01-25T13:40:35;2.58;;;0.90;;
23628;SDS011;11991;57.150;-2.134;2023-01-25T13:43:14;1.80;;;1.00;;
23628;SDS011;11991;57.150;-2.134;2023-01-25T13:45:47;5.43;;;1.05;;
23628;SDS011;11991;57.150;-2.134;2023-01-25T13:48:23;4.68;;;0.90;;
23628;SDS011;11991;57.150;-2.134;2023-01-25T13:50:54;4.22;;;1.15;;
23628;SDS011;11991;57.150;-2.134;2023-01-25T13:53:25;3.58;;;1.05;;
23628;SDS011;11991;57.150;-2.134;2023-01-25T13:55:58;7.03;;;1.60;;
23628;SDS011;11991;57.150;-2.134;2023-01-25T13:58:28;4.82;;;1.40;;
23628;SDS011;11991;57.150;-2.134;2023-01-25T14:00:57;3.45;;;0.95;;
23628;SDS011;11991;57.150;-2.134;2023-01-25T14:03:30;3.20;;;1.25;;
23628;SDS011;11991;57.150;-2.134;2023-01-25T14:06:01;4.65;;;1.52;;
23628;SDS011;11991;57.150;-2.134;2023-01-25T14:08:30;5.35;;;1.77;;
23628;SDS011;11991;57.150;-2.134;2023-01-25T14:10:58;6.43;;;1.40;;
23628;SDS011;11991;57.150;-2.134;2023-01-25T14:13:29;2.92;;;1.20;;
23628;SDS011;11991;57.150;-2.134;2023-01-25T14:15:57;2.40;;;0.88;;
23628;SDS011;11991;57.150;-2.134;2023-01-25T14:18:30;5.45;;;1.27;;
23628;SDS011;11991;57.150;-2.134;2023-01-25T14:24:07;2.42;;;0.85;;
23628;SDS011;11991;57.150;-2.134;2023-01-25T14:26:37;2.72;;;0.98;;
23628;SDS011;11991;57.150;-2.134;2023-01-25T14:29:11;1.88;;;0.80;;
23628;SDS011;11991;57.150;-2.134;2023-01-25T14:32:01;4.55;;;0.90;;
23628;SDS011;11991;57.150;-2.134;2023-01-25T14:34:29;1.17;;;0.90;;
23628;SDS011;11991;57.150;-2.134;2023-01-25T14:37:13;1.02;;;0.68;;
23628;SDS011;11991;57.150;-2.134;2023-01-25T14:39:47;0.63;;;0.52;;
23628;SDS011;11991;57.150;-2.134;2023-01-25T14:42:17;1.80;;;0.90;;
23628;SDS011;11991;57.150;-2.134;2023-01-25T14:44:46;3.03;;;0.85;;
23628;SDS011;11991;57.150;-2.134;2023-01-25T14:47:21;1.20;;;0.82;;
23628;SDS011;11991;57.150;-2.134;2023-01-25T14:49:51;3.65;;;1.15;;
23628;SDS011;11991;57.150;-2.134;2023-01-25T14:52:19;4.13;;;1.08;;
23628;SDS011;11991;57.150;-2.134;2023-01-25T14:54:54;2.63;;;1.00;;
23628;SDS011;11991;57.150;-2.134;2023-01-25T14:57:30;1.60;;;0.70;;
23628;SDS011;11991;57.150;-2.134;2023-01-25T15:00:19;1.38;;;0.50;;
23628;SDS011;11991;57.150;-2.134;2023-01-25T15:02:57;1.38;;;0.88;;
23628;SDS011;11991;57.150;-2.134;2023-01-25T15:05:34;1.70;;;0.80;;
23628;SDS011;11991;57.150;-2.134;2023-01-25T15:10:34;5.25;;;1.30;;
23628;SDS011;11991;57.150;-2.134;2023-01-25T15:13:24;3.08;;;1.08;;
23628;SDS011;11991;57.150;-2.134;2023-01-25T15:15:53;5.28;;;1.30;;
23628;SDS011;11991;57.150;-2.134;2023-01-25T15:21:09;3.80;;;0.98;;
23628;SDS011;11991;57.150;-2.134;2023-01-25T15:23:46;1.90;;;1.10;;
23628;SDS011;11991;57.150;-2.134;2023-01-25T15:26:19;3.78;;;1.05;;
23628;SDS011;11991;57.150;-2.134;2023-01-25T15:28:54;3.88;;;1.35;;
23628;SDS011;11991;57.150;-2.134;2023-01-25T15:31:29;2.38;;;0.90;;
23628;SDS011;11991;57.150;-2.134;2023-01-25T15:34:03;3.25;;;1.02;;
23628;SDS011;11991;57.150;-2.134;2023-01-25T15:36:33;1.85;;;0.63;;
23628;SDS011;11991;57.150;-2.134;2023-01-25T15:39:02;3.55;;;1.23;;
23628;SDS011;11991;57.150;-2.134;2023-01-25T15:41:32;6.60;;;1.08;;
23628;SDS011;11991;57.150;-2.134;2023-01-25T15:44:02;3.08;;;0.73;;
23628;SDS011;11991;57.150;-2.134;2023-01-25T15:46:30;2.50;;;1.00;;
23628;SDS011;11991;57.150;-2.134;2023-01-25T15:48:59;2.83;;;1.00;;
23628;SDS011;11991;57.150;-2.134;2023-01-25T15:51:26;7.10;;;1.35;;
23628;SDS011;11991;57.150;-2.134;2023-01-25T15:53:54;4.47;;;1.10;;
23628;SDS011;11991;57.150;-2.134;2023-01-25T15:56:22;3.47;;;1.00;;
23628;SDS011;11991;57.150;-2.134;2023-01-25T16:02:12;2.72;;;1.00;;
23628;SDS011;11991;57.150;-2.134;2023-01-25T16:04:39;3.42;;;1.25;;
23628;SDS011;11991;57.150;-2.134;2023-01-25T16:07:23;3.35;;;1.40;;
23628;SDS011;11991;57.150;-2.134;2023-01-25T16:09:54;2.92;;;1.10;;
23628;SDS011;11991;57.150;-2.134;2023-01-25T16:18:34;3.83;;;1.60;;
23628;SDS011;11991;57.150;-2.134;2023-01-25T16:21:01;3.40;;;1.50;;
23628;SDS011;11991;57.150;-2.134;2023-01-25T16:23:28;7.25;;;1.55;;
23628;SDS011;11991;57.150;-2.134;2023-01-25T16:25:56;3.70;;;1.20;;
23628;SDS011;11991;57.150;-2.134;2023-01-25T16:28:23;5.47;;;1.40;;
23628;SDS011;11991;57.150;-2.134;2023-01-25T16:30:51;5.03;;;1.20;;
23628;SDS011;11991;57.150;-2.134;2023-01-25T16:33:18;3.75;;;1.10;;
23628;SDS011;11991;57.150;-2.134;2023-01-25T16:36:02;1.92;;;0.90;;
23628;SDS011;11991;57.150;-2.134;2023-01-25T16:38:37;2.13;;;0.85;;
23628;SDS011;11991;57.150;-2.134;2023-01-25T16:41:04;3.50;;;1.08;;
23628;SDS011;11991;57.150;-2.134;2023-01-25T16:43:31;4.03;;;1.20;;
23628;SDS011;11991;57.150;-2.134;2023-01-25T16:46:26;8.30;;;1.65;;
23628;SDS011;11991;57.150;-2.134;2023-01-25T16:48:55;4.43;;;1.30;;
23628;SDS011;11991;57.150;-2.134;2023-01-25T16:51:25;3.22;;;1.23;;
23628;SDS011;11991;57.150;-2.134;2023-01-25T16:53:54;2.92;;;1.00;;
23628;SDS011;11991;57.150;-2.134;2023-01-25T16:56:25;1.92;;;1.15;;
23628;SDS011;11991;57.150;-2.134;2023-01-25T16:58:54;4.70;;;1.38;;
23628;SDS011;11991;57.150;-2.134;2023-01-25T17:01:23;2.85;;;1.35;;
23628;SDS011;11991;57.150;-2.134;2023-01-25T17:03:52;1.90;;;1.00;;
23628;SDS011;11991;57.150;-2.134;2023-01-25T17:06:24;3.83;;;1.20;;
23628;SDS011;11991;57.150;-2.134;2023-01-25T17:08:56;5.32;;;1.50;;